sensor_id;sensor_type;location;lat;lon;timestamp;P1;durP1;ratioP1;P2;durP2;ratioP2
68188;SDS011;66299;47.514;19.218;2023-01-09T00:00:14;26.63;;;16.00;;
68188;SDS011;66299;47.514;19.218;2023-01-09T00:02:45;27.38;;;15.73;;
68188;SDS011;66299;47.514;19.218;2023-01-09T00:05:14;25.10;;;15.73;;
68188;SDS011;66299;47.514;19.218;2023-01-09T00:07:47;24.80;;;15.55;;
68188;SDS011;66299;47.514;19.218;2023-01-09T00:10:16;28.25;;;15.85;;
68188;SDS011;66299;47.514;19.218;2023-01-09T00:12:44;24.95;;;15.85;;
68188;SDS011;66299;47.514;19.218;2023-01-09T00:15:14;27.35;;;16.35;;
68188;SDS011;66299;47.514;19.218;2023-01-09T00:17:43;25.95;;;15.63;;
68188;SDS011;66299;47.514;19.218;2023-01-09T00:20:13;30.23;;;15.45;;
68188;SDS011;66299;47.514;19.218;2023-01-09T00:22:44;28.15;;;15.75;;
68188;SDS011;66299;47.514;19.218;2023-01-09T00:25:15;27.00;;;15.20;;
68188;SDS011;66299;47.514;19.218;2023-01-09T00:27:44;26.30;;;15.05;;
68188;SDS011;66299;47.514;19.218;2023-01-09T00:30:14;23.48;;;13.95;;
68188;SDS011;66299;47.514;19.218;2023-01-09T00:32:43;24.50;;;14.02;;
68188;SDS011;66299;47.514;19.218;2023-01-09T00:35:13;23.92;;;14.25;;
68188;SDS011;66299;47.514;19.218;2023-01-09T00:37:47;23.17;;;13.95;;
68188;SDS011;66299;47.514;19.218;2023-01-09T00:40:16;22.60;;;13.77;;
68188;SDS011;66299;47.514;19.218;2023-01-09T00:42:45;22.45;;;13.70;;
68188;SDS011;66299;47.514;19.218;2023-01-09T00:45:20;23.83;;;13.55;;
68188;SDS011;66299;47.514;19.218;2023-01-09T00:47:56;24.75;;;13.68;;
68188;SDS011;66299;47.514;19.218;2023-01-09T00:50:29;21.52;;;12.80;;
68188;SDS011;66299;47.514;19.218;2023-01-09T00:53:05;23.23;;;12.75;;
68188;SDS011;66299;47.514;19.218;2023-01-09T00:55:37;23.77;;;13.13;;
68188;SDS011;66299;47.514;19.218;2023-01-09T00:58:07;24.40;;;13.80;;
68188;SDS011;66299;47.514;19.218;2023-01-09T01:00:36;25.45;;;13.65;;
68188;SDS011;66299;47.514;19.218;2023-01-09T01:03:05;24.27;;;12.80;;
68188;SDS011;66299;47.514;19.218;2023-01-09T01:05:34;21.42;;;13.32;;
68188;SDS011;66299;47.514;19.218;2023-01-09T01:08:36;21.55;;;12.70;;
68188;SDS011;66299;47.514;19.218;2023-01-09T01:11:05;23.83;;;13.50;;
68188;SDS011;66299;47.514;19.218;2023-01-09T01:13:36;22.67;;;13.30;;
68188;SDS011;66299;47.514;19.218;2023-01-09T01:16:05;20.17;;;12.40;;
68188;SDS011;66299;47.514;19.218;2023-01-09T01:18:35;21.77;;;12.27;;
68188;SDS011;66299;47.514;19.218;2023-01-09T01:21:04;20.60;;;11.98;;
68188;SDS011;66299;47.514;19.218;2023-01-09T01:26:07;26.38;;;12.13;;
68188;SDS011;66299;47.514;19.218;2023-01-09T01:28:37;22.52;;;12.25;;
68188;SDS011;66299;47.514;19.218;2023-01-09T01:31:06;20.35;;;12.38;;
68188;SDS011;66299;47.514;19.218;2023-01-09T01:33:35;22.92;;;11.88;;
68188;SDS011;66299;47.514;19.218;2023-01-09T01:36:04;21.67;;;11.90;;
68188;SDS011;66299;47.514;19.218;2023-01-09T01:38:34;21.02;;;11.70;;
68188;SDS011;66299;47.514;19.218;2023-01-09T01:41:06;20.50;;;11.52;;
68188;SDS011;66299;47.514;19.218;2023-01-09T01:43:50;24.23;;;11.75;;
68188;SDS011;66299;47.514;19.218;2023-01-09T01:46:20;19.35;;;11.43;;
68188;SDS011;66299;47.514;19.218;2023-01-09T01:48:51;21.33;;;10.60;;
68188;SDS011;66299;47.514;19.218;2023-01-09T01:51:23;20.23;;;10.73;;
68188;SDS011;66299;47.514;19.218;2023-01-09T01:53:58;19.23;;;10.90;;
68188;SDS011;66299;47.514;19.218;2023-01-09T01:56:31;18.63;;;10.80;;
68188;SDS011;66299;47.514;19.218;2023-01-09T01:59:05;21.40;;;10.82;;
68188;SDS011;66299;47.514;19.218;2023-01-09T02:01:39;19.38;;;10.50;;
68188;SDS011;66299;47.514;19.218;2023-01-09T02:04:11;19.10;;;10.20;;
68188;SDS011;66299;47.514;19.218;2023-01-09T02:06:40;21.83;;;10.50;;
68188;SDS011;66299;47.514;19.218;2023-01-09T02:09:11;17.92;;;10.45;;
68188;SDS011;66299;47.514;19.218;2023-01-09T02:11:47;19.83;;;10.52;;
68188;SDS011;66299;47.514;19.218;2023-01-09T02:14:17;21.00;;;10.68;;
68188;SDS011;66299;47.514;19.218;2023-01-09T02:16:50;19.05;;;10.68;;
68188;SDS011;66299;47.514;19.218;2023-01-09T02:22:40;20.20;;;11.40;;
68188;SDS011;66299;47.514;19.218;2023-01-09T02:25:38;19.80;;;10.77;;
68188;SDS011;66299;47.514;19.218;2023-01-09T02:28:32;20.55;;;10.90;;
68188;SDS011;66299;47.514;19.218;2023-01-09T02:31:38;20.98;;;11.02;;
68188;SDS011;66299;47.514;19.218;2023-01-09T02:34:17;19.63;;;10.90;;
68188;SDS011;66299;47.514;19.218;2023-01-09T02:36:53;18.90;;;10.77;;
68188;SDS011;66299;47.514;19.218;2023-01-09T02:39:31;20.58;;;11.18;;
68188;SDS011;66299;47.514;19.218;2023-01-09T02:42:04;19.45;;;10.73;;
68188;SDS011;66299;47.514;19.218;2023-01-09T02:44:37;17.67;;;9.77;;
68188;SDS011;66299;47.514;19.218;2023-01-09T02:50:09;18.92;;;10.20;;
68188;SDS011;66299;47.514;19.218;2023-01-09T02:55:39;18.10;;;9.88;;
68188;SDS011;66299;47.514;19.218;2023-01-09T02:58:23;19.25;;;9.95;;
68188;SDS011;66299;47.514;19.218;2023-01-09T03:01:06;17.58;;;9.63;;
68188;SDS011;66299;47.514;19.218;2023-01-09T03:03:51;20.38;;;10.27;;
68188;SDS011;66299;47.514;19.218;2023-01-09T03:06:29;20.75;;;9.75;;
68188;SDS011;66299;47.514;19.218;2023-01-09T03:09:04;18.88;;;9.93;;
68188;SDS011;66299;47.514;19.218;2023-01-09T03:11:37;20.40;;;10.07;;
68188;SDS011;66299;47.514;19.218;2023-01-09T03:14:10;18.90;;;10.40;;
68188;SDS011;66299;47.514;19.218;2023-01-09T03:16:45;19.70;;;10.27;;
68188;SDS011;66299;47.514;19.218;2023-01-09T03:19:19;18.35;;;9.88;;
68188;SDS011;66299;47.514;19.218;2023-01-09T03:21:50;19.85;;;10.13;;
68188;SDS011;66299;47.514;19.218;2023-01-09T03:24:20;19.20;;;10.30;;
68188;SDS011;66299;47.514;19.218;2023-01-09T03:26:48;18.90;;;9.70;;
68188;SDS011;66299;47.514;19.218;2023-01-09T03:29:20;19.67;;;10.20;;
68188;SDS011;66299;47.514;19.218;2023-01-09T03:31:50;19.73;;;11.15;;
68188;SDS011;66299;47.514;19.218;2023-01-09T03:34:20;17.40;;;10.10;;
68188;SDS011;66299;47.514;19.218;2023-01-09T03:36:49;21.08;;;10.70;;
68188;SDS011;66299;47.514;19.218;2023-01-09T03:39:22;19.17;;;10.65;;
68188;SDS011;66299;47.514;19.218;2023-01-09T03:41:51;20.92;;;10.75;;
68188;SDS011;66299;47.514;19.218;2023-01-09T03:44:19;19.00;;;10.60;;
68188;SDS011;66299;47.514;19.218;2023-01-09T03:46:48;18.48;;;10.45;;
68188;SDS011;66299;47.514;19.218;2023-01-09T03:49:17;17.92;;;10.23;;
68188;SDS011;66299;47.514;19.218;2023-01-09T03:51:48;19.20;;;10.40;;
68188;SDS011;66299;47.514;19.218;2023-01-09T03:54:16;19.48;;;10.20;;
68188;SDS011;66299;47.514;19.218;2023-01-09T03:56:45;18.80;;;10.13;;
68188;SDS011;66299;47.514;19.218;2023-01-09T03:59:13;19.92;;;10.32;;
68188;SDS011;66299;47.514;19.218;2023-01-09T04:01:43;18.40;;;9.95;;
68188;SDS011;66299;47.514;19.218;2023-01-09T04:04:12;18.52;;;9.68;;
68188;SDS011;66299;47.514;19.218;2023-01-09T04:06:43;19.17;;;10.13;;
68188;SDS011;66299;47.514;19.218;2023-01-09T04:09:13;20.27;;;9.88;;
68188;SDS011;66299;47.514;19.218;2023-01-09T04:11:42;17.20;;;9.40;;
68188;SDS011;66299;47.514;19.218;2023-01-09T04:14:12;18.40;;;9.95;;
68188;SDS011;66299;47.514;19.218;2023-01-09T04:16:42;17.50;;;9.48;;
68188;SDS011;66299;47.514;19.218;2023-01-09T04:19:10;16.48;;;9.25;;
68188;SDS011;66299;47.514;19.218;2023-01-09T04:21:39;17.95;;;9.48;;
68188;SDS011;66299;47.514;19.218;2023-01-09T04:24:08;20.23;;;9.98;;
68188;SDS011;66299;47.514;19.218;2023-01-09T04:26:41;19.90;;;9.93;;
68188;SDS011;66299;47.514;19.218;2023-01-09T04:29:11;17.70;;;10.00;;
68188;SDS011;66299;47.514;19.218;2023-01-09T04:31:41;16.80;;;9.98;;
68188;SDS011;66299;47.514;19.218;2023-01-09T04:34:10;22.63;;;10.77;;
68188;SDS011;66299;47.514;19.218;2023-01-09T04:36:40;20.92;;;10.75;;
68188;SDS011;66299;47.514;19.218;2023-01-09T04:39:08;18.25;;;10.18;;
68188;SDS011;66299;47.514;19.218;2023-01-09T04:41:40;18.08;;;10.45;;
68188;SDS011;66299;47.514;19.218;2023-01-09T04:44:18;19.25;;;10.77;;
68188;SDS011;66299;47.514;19.218;2023-01-09T04:46:47;21.58;;;10.65;;
68188;SDS011;66299;47.514;19.218;2023-01-09T04:49:16;19.25;;;10.98;;
68188;SDS011;66299;47.514;19.218;2023-01-09T04:51:44;20.80;;;11.25;;
68188;SDS011;66299;47.514;19.218;2023-01-09T04:54:13;20.88;;;11.02;;
68188;SDS011;66299;47.514;19.218;2023-01-09T04:56:42;19.52;;;10.98;;
68188;SDS011;66299;47.514;19.218;2023-01-09T04:59:11;19.85;;;11.45;;
68188;SDS011;66299;47.514;19.218;2023-01-09T05:01:41;21.92;;;11.73;;
68188;SDS011;66299;47.514;19.218;2023-01-09T05:04:11;20.50;;;11.75;;
68188;SDS011;66299;47.514;19.218;2023-01-09T05:06:40;23.50;;;12.38;;
68188;SDS011;66299;47.514;19.218;2023-01-09T05:09:08;21.00;;;12.27;;
68188;SDS011;66299;47.514;19.218;2023-01-09T05:11:37;23.40;;;12.60;;
68188;SDS011;66299;47.514;19.218;2023-01-09T05:14:07;21.70;;;12.80;;
68188;SDS011;66299;47.514;19.218;2023-01-09T05:16:36;22.75;;;13.40;;
68188;SDS011;66299;47.514;19.218;2023-01-09T05:19:04;23.33;;;13.55;;
68188;SDS011;66299;47.514;19.218;2023-01-09T05:21:35;21.73;;;12.80;;
68188;SDS011;66299;47.514;19.218;2023-01-09T05:24:04;22.58;;;13.52;;
68188;SDS011;66299;47.514;19.218;2023-01-09T05:26:32;21.90;;;12.77;;
68188;SDS011;66299;47.514;19.218;2023-01-09T05:29:01;23.85;;;13.75;;
68188;SDS011;66299;47.514;19.218;2023-01-09T05:31:31;22.02;;;13.23;;
68188;SDS011;66299;47.514;19.218;2023-01-09T05:34:00;24.95;;;14.07;;
68188;SDS011;66299;47.514;19.218;2023-01-09T05:36:29;22.52;;;13.93;;
68188;SDS011;66299;47.514;19.218;2023-01-09T05:38:57;24.70;;;14.77;;
68188;SDS011;66299;47.514;19.218;2023-01-09T05:41:25;24.08;;;14.55;;
68188;SDS011;66299;47.514;19.218;2023-01-09T05:43:57;26.20;;;15.27;;
68188;SDS011;66299;47.514;19.218;2023-01-09T05:46:27;25.58;;;15.23;;
68188;SDS011;66299;47.514;19.218;2023-01-09T05:48:57;27.60;;;14.95;;
68188;SDS011;66299;47.514;19.218;2023-01-09T05:51:26;24.80;;;14.88;;
68188;SDS011;66299;47.514;19.218;2023-01-09T05:53:58;25.88;;;15.25;;
68188;SDS011;66299;47.514;19.218;2023-01-09T05:56:32;26.85;;;15.55;;
68188;SDS011;66299;47.514;19.218;2023-01-09T05:59:00;25.83;;;15.18;;
68188;SDS011;66299;47.514;19.218;2023-01-09T06:01:29;26.58;;;15.63;;
68188;SDS011;66299;47.514;19.218;2023-01-09T06:03:59;26.27;;;15.63;;
68188;SDS011;66299;47.514;19.218;2023-01-09T06:06:28;26.95;;;15.32;;
68188;SDS011;66299;47.514;19.218;2023-01-09T06:08:56;28.75;;;16.25;;
68188;SDS011;66299;47.514;19.218;2023-01-09T06:11:25;24.67;;;14.75;;
68188;SDS011;66299;47.514;19.218;2023-01-09T06:13:54;23.95;;;14.75;;
68188;SDS011;66299;47.514;19.218;2023-01-09T06:16:23;24.08;;;14.75;;
68188;SDS011;66299;47.514;19.218;2023-01-09T06:18:51;27.90;;;15.75;;
68188;SDS011;66299;47.514;19.218;2023-01-09T06:21:27;29.23;;;16.10;;
68188;SDS011;66299;47.514;19.218;2023-01-09T06:24:01;27.05;;;15.80;;
68188;SDS011;66299;47.514;19.218;2023-01-09T06:26:33;25.38;;;16.02;;
68188;SDS011;66299;47.514;19.218;2023-01-09T06:29:05;28.27;;;15.93;;
68188;SDS011;66299;47.514;19.218;2023-01-09T06:31:34;29.65;;;16.75;;
68188;SDS011;66299;47.514;19.218;2023-01-09T06:34:07;27.00;;;16.70;;
68188;SDS011;66299;47.514;19.218;2023-01-09T06:36:40;31.45;;;17.85;;
68188;SDS011;66299;47.514;19.218;2023-01-09T06:39:13;28.38;;;17.45;;
68188;SDS011;66299;47.514;19.218;2023-01-09T06:41:45;26.55;;;15.80;;
68188;SDS011;66299;47.514;19.218;2023-01-09T06:44:16;32.75;;;16.98;;
68188;SDS011;66299;47.514;19.218;2023-01-09T06:46:50;27.23;;;16.50;;
68188;SDS011;66299;47.514;19.218;2023-01-09T06:49:22;25.58;;;15.48;;
68188;SDS011;66299;47.514;19.218;2023-01-09T06:51:53;26.30;;;15.93;;
68188;SDS011;66299;47.514;19.218;2023-01-09T06:54:26;25.88;;;15.75;;
68188;SDS011;66299;47.514;19.218;2023-01-09T06:56:56;32.00;;;20.17;;
68188;SDS011;66299;47.514;19.218;2023-01-09T06:59:28;36.17;;;20.08;;
68188;SDS011;66299;47.514;19.218;2023-01-09T07:02:01;35.17;;;18.30;;
68188;SDS011;66299;47.514;19.218;2023-01-09T07:04:29;30.83;;;16.60;;
68188;SDS011;66299;47.514;19.218;2023-01-09T07:07:01;30.52;;;17.90;;
68188;SDS011;66299;47.514;19.218;2023-01-09T07:12:01;28.88;;;17.25;;
68188;SDS011;66299;47.514;19.218;2023-01-09T07:14:32;32.05;;;18.98;;
68188;SDS011;66299;47.514;19.218;2023-01-09T07:17:01;31.38;;;18.42;;
68188;SDS011;66299;47.514;19.218;2023-01-09T07:19:33;27.52;;;17.10;;
68188;SDS011;66299;47.514;19.218;2023-01-09T07:24:34;28.10;;;17.33;;
68188;SDS011;66299;47.514;19.218;2023-01-09T07:27:03;31.08;;;16.83;;
68188;SDS011;66299;47.514;19.218;2023-01-09T07:29:31;31.55;;;18.02;;
68188;SDS011;66299;47.514;19.218;2023-01-09T07:32:00;28.92;;;18.05;;
68188;SDS011;66299;47.514;19.218;2023-01-09T07:34:28;30.75;;;18.70;;
68188;SDS011;66299;47.514;19.218;2023-01-09T07:36:57;29.17;;;17.98;;
68188;SDS011;66299;47.514;19.218;2023-01-09T07:39:28;30.00;;;18.45;;
68188;SDS011;66299;47.514;19.218;2023-01-09T07:41:57;33.35;;;17.85;;
68188;SDS011;66299;47.514;19.218;2023-01-09T07:44:27;30.90;;;17.00;;
68188;SDS011;66299;47.514;19.218;2023-01-09T07:46:58;26.90;;;16.73;;
68188;SDS011;66299;47.514;19.218;2023-01-09T07:49:32;31.38;;;16.60;;
68188;SDS011;66299;47.514;19.218;2023-01-09T07:52:01;27.70;;;16.98;;
68188;SDS011;66299;47.514;19.218;2023-01-09T07:54:32;32.90;;;18.80;;
68188;SDS011;66299;47.514;19.218;2023-01-09T07:57:00;29.13;;;17.60;;
68188;SDS011;66299;47.514;19.218;2023-01-09T07:59:29;29.50;;;17.60;;
68188;SDS011;66299;47.514;19.218;2023-01-09T08:01:58;30.15;;;17.27;;
68188;SDS011;66299;47.514;19.218;2023-01-09T08:04:28;28.58;;;17.13;;
68188;SDS011;66299;47.514;19.218;2023-01-09T08:06:56;29.60;;;18.00;;
68188;SDS011;66299;47.514;19.218;2023-01-09T08:09:27;28.50;;;16.63;;
68188;SDS011;66299;47.514;19.218;2023-01-09T08:11:58;29.45;;;17.30;;
68188;SDS011;66299;47.514;19.218;2023-01-09T08:14:27;26.35;;;16.23;;
68188;SDS011;66299;47.514;19.218;2023-01-09T08:16:57;30.33;;;17.20;;
68188;SDS011;66299;47.514;19.218;2023-01-09T08:19:26;35.45;;;17.63;;
68188;SDS011;66299;47.514;19.218;2023-01-09T08:21:55;33.90;;;19.00;;
68188;SDS011;66299;47.514;19.218;2023-01-09T08:24:23;30.77;;;19.05;;
68188;SDS011;66299;47.514;19.218;2023-01-09T08:26:55;29.73;;;18.42;;
68188;SDS011;66299;47.514;19.218;2023-01-09T08:29:25;33.60;;;19.80;;
68188;SDS011;66299;47.514;19.218;2023-01-09T08:31:56;38.53;;;21.13;;
68188;SDS011;66299;47.514;19.218;2023-01-09T08:34:24;30.75;;;17.15;;
68188;SDS011;66299;47.514;19.218;2023-01-09T08:36:54;31.60;;;18.33;;
68188;SDS011;66299;47.514;19.218;2023-01-09T08:39:24;29.73;;;18.13;;
68188;SDS011;66299;47.514;19.218;2023-01-09T08:41:53;31.25;;;18.42;;
68188;SDS011;66299;47.514;19.218;2023-01-09T08:44:41;31.63;;;18.30;;
68188;SDS011;66299;47.514;19.218;2023-01-09T08:47:28;29.15;;;18.30;;
68188;SDS011;66299;47.514;19.218;2023-01-09T08:49:59;31.73;;;18.73;;
68188;SDS011;66299;47.514;19.218;2023-01-09T08:52:28;33.55;;;19.27;;
68188;SDS011;66299;47.514;19.218;2023-01-09T08:54:58;31.25;;;19.27;;
68188;SDS011;66299;47.514;19.218;2023-01-09T08:57:27;30.63;;;17.92;;
68188;SDS011;66299;47.514;19.218;2023-01-09T08:59:58;32.83;;;19.65;;
68188;SDS011;66299;47.514;19.218;2023-01-09T09:02:26;32.03;;;19.50;;
68188;SDS011;66299;47.514;19.218;2023-01-09T09:04:55;33.20;;;20.15;;
68188;SDS011;66299;47.514;19.218;2023-01-09T09:07:24;38.78;;;21.67;;
68188;SDS011;66299;47.514;19.218;2023-01-09T09:09:53;37.42;;;22.17;;
68188;SDS011;66299;47.514;19.218;2023-01-09T09:12:21;34.88;;;21.77;;
68188;SDS011;66299;47.514;19.218;2023-01-09T09:14:50;37.97;;;22.77;;
68188;SDS011;66299;47.514;19.218;2023-01-09T09:17:37;37.70;;;21.77;;
68188;SDS011;66299;47.514;19.218;2023-01-09T09:20:06;35.30;;;22.00;;
68188;SDS011;66299;47.514;19.218;2023-01-09T09:22:35;36.55;;;22.10;;
68188;SDS011;66299;47.514;19.218;2023-01-09T09:25:05;34.42;;;22.35;;
68188;SDS011;66299;47.514;19.218;2023-01-09T09:27:33;37.75;;;21.40;;
68188;SDS011;66299;47.514;19.218;2023-01-09T09:30:03;35.20;;;22.67;;
68188;SDS011;66299;47.514;19.218;2023-01-09T09:32:33;37.08;;;22.40;;
68188;SDS011;66299;47.514;19.218;2023-01-09T09:35:05;35.22;;;22.08;;
68188;SDS011;66299;47.514;19.218;2023-01-09T09:37:34;37.70;;;22.45;;
68188;SDS011;66299;47.514;19.218;2023-01-09T09:40:04;39.08;;;23.67;;
68188;SDS011;66299;47.514;19.218;2023-01-09T09:42:51;37.50;;;24.00;;
68188;SDS011;66299;47.514;19.218;2023-01-09T09:48:31;44.00;;;24.75;;
68188;SDS011;66299;47.514;19.218;2023-01-09T09:54:01;39.00;;;24.25;;
68188;SDS011;66299;47.514;19.218;2023-01-09T09:56:33;40.03;;;24.80;;
68188;SDS011;66299;47.514;19.218;2023-01-09T09:59:17;41.00;;;24.90;;
68188;SDS011;66299;47.514;19.218;2023-01-09T10:01:50;37.67;;;23.63;;
68188;SDS011;66299;47.514;19.218;2023-01-09T10:04:23;39.72;;;24.00;;
68188;SDS011;66299;47.514;19.218;2023-01-09T10:09:31;43.58;;;25.55;;
68188;SDS011;66299;47.514;19.218;2023-01-09T10:12:12;45.03;;;25.77;;
68188;SDS011;66299;47.514;19.218;2023-01-09T10:14:51;39.95;;;25.20;;
68188;SDS011;66299;47.514;19.218;2023-01-09T10:17:27;40.70;;;24.85;;
68188;SDS011;66299;47.514;19.218;2023-01-09T10:20:07;39.80;;;25.55;;
68188;SDS011;66299;47.514;19.218;2023-01-09T10:22:50;41.10;;;24.88;;
68188;SDS011;66299;47.514;19.218;2023-01-09T10:25:30;41.72;;;26.33;;
68188;SDS011;66299;47.514;19.218;2023-01-09T10:28:12;42.72;;;26.00;;
68188;SDS011;66299;47.514;19.218;2023-01-09T10:30:53;41.05;;;26.08;;
68188;SDS011;66299;47.514;19.218;2023-01-09T10:33:34;42.92;;;25.13;;
68188;SDS011;66299;47.514;19.218;2023-01-09T10:36:22;47.38;;;27.73;;
68188;SDS011;66299;47.514;19.218;2023-01-09T10:39:09;60.93;;;34.50;;
68188;SDS011;66299;47.514;19.218;2023-01-09T10:41:45;54.20;;;32.00;;
68188;SDS011;66299;47.514;19.218;2023-01-09T10:44:23;53.47;;;32.03;;
68188;SDS011;66299;47.514;19.218;2023-01-09T10:46:59;42.67;;;26.08;;
68188;SDS011;66299;47.514;19.218;2023-01-09T10:49:32;46.85;;;28.02;;
68188;SDS011;66299;47.514;19.218;2023-01-09T10:52:10;47.47;;;28.90;;
68188;SDS011;66299;47.514;19.218;2023-01-09T10:54:47;42.65;;;26.27;;
68188;SDS011;66299;47.514;19.218;2023-01-09T11:00:16;44.70;;;27.83;;
68188;SDS011;66299;47.514;19.218;2023-01-09T11:02:49;49.25;;;27.80;;
68188;SDS011;66299;47.514;19.218;2023-01-09T11:05:22;41.83;;;27.02;;
68188;SDS011;66299;47.514;19.218;2023-01-09T11:07:54;41.42;;;27.27;;
68188;SDS011;66299;47.514;19.218;2023-01-09T11:10:43;47.65;;;28.17;;
68188;SDS011;66299;47.514;19.218;2023-01-09T11:13:17;44.15;;;27.23;;
68188;SDS011;66299;47.514;19.218;2023-01-09T11:16:00;44.78;;;28.58;;
68188;SDS011;66299;47.514;19.218;2023-01-09T11:18:34;46.58;;;27.75;;
68188;SDS011;66299;47.514;19.218;2023-01-09T11:21:24;44.67;;;27.55;;
68188;SDS011;66299;47.514;19.218;2023-01-09T11:32:54;46.58;;;28.85;;
68188;SDS011;66299;47.514;19.218;2023-01-09T11:35:24;44.47;;;28.38;;
68188;SDS011;66299;47.514;19.218;2023-01-09T11:38:01;43.38;;;28.45;;
68188;SDS011;66299;47.514;19.218;2023-01-09T11:40:38;44.92;;;27.88;;
68188;SDS011;66299;47.514;19.218;2023-01-09T11:43:18;44.83;;;27.88;;
68188;SDS011;66299;47.514;19.218;2023-01-09T11:45:52;44.38;;;28.00;;
68188;SDS011;66299;47.514;19.218;2023-01-09T11:48:29;47.13;;;28.90;;
68188;SDS011;66299;47.514;19.218;2023-01-09T11:51:03;48.33;;;30.17;;
68188;SDS011;66299;47.514;19.218;2023-01-09T11:53:42;44.63;;;27.60;;
68188;SDS011;66299;47.514;19.218;2023-01-09T11:56:19;47.58;;;28.70;;
68188;SDS011;66299;47.514;19.218;2023-01-09T11:58:49;48.90;;;29.63;;
68188;SDS011;66299;47.514;19.218;2023-01-09T12:04:25;46.40;;;28.83;;
68188;SDS011;66299;47.514;19.218;2023-01-09T12:07:02;44.05;;;28.00;;
68188;SDS011;66299;47.514;19.218;2023-01-09T12:09:54;47.72;;;28.58;;
68188;SDS011;66299;47.514;19.218;2023-01-09T12:12:32;44.78;;;28.25;;
68188;SDS011;66299;47.514;19.218;2023-01-09T12:15:15;47.63;;;27.00;;
68188;SDS011;66299;47.514;19.218;2023-01-09T12:18:02;42.10;;;26.35;;
68188;SDS011;66299;47.514;19.218;2023-01-09T12:20:49;43.88;;;26.95;;
68188;SDS011;66299;47.514;19.218;2023-01-09T12:23:25;42.60;;;26.77;;
68188;SDS011;66299;47.514;19.218;2023-01-09T12:26:06;43.28;;;26.52;;
68188;SDS011;66299;47.514;19.218;2023-01-09T12:31:49;43.65;;;27.08;;
68188;SDS011;66299;47.514;19.218;2023-01-09T12:34:32;41.63;;;26.27;;
68188;SDS011;66299;47.514;19.218;2023-01-09T12:37:14;42.75;;;25.70;;
68188;SDS011;66299;47.514;19.218;2023-01-09T12:39:59;43.15;;;25.88;;
68188;SDS011;66299;47.514;19.218;2023-01-09T12:42:39;42.30;;;26.35;;
68188;SDS011;66299;47.514;19.218;2023-01-09T12:45:27;42.63;;;26.85;;
68188;SDS011;66299;47.514;19.218;2023-01-09T12:48:14;45.03;;;26.63;;
68188;SDS011;66299;47.514;19.218;2023-01-09T12:53:57;43.60;;;26.80;;
68188;SDS011;66299;47.514;19.218;2023-01-09T12:56:34;47.67;;;28.35;;
68188;SDS011;66299;47.514;19.218;2023-01-09T12:59:13;41.78;;;26.88;;
68188;SDS011;66299;47.514;19.218;2023-01-09T13:01:58;45.05;;;26.13;;
68188;SDS011;66299;47.514;19.218;2023-01-09T13:04:36;39.70;;;25.60;;
68188;SDS011;66299;47.514;19.218;2023-01-09T13:07:10;43.42;;;26.30;;
68188;SDS011;66299;47.514;19.218;2023-01-09T13:09:46;46.22;;;28.38;;
68188;SDS011;66299;47.514;19.218;2023-01-09T13:12:21;43.95;;;28.15;;
68188;SDS011;66299;47.514;19.218;2023-01-09T13:14:52;48.20;;;28.38;;
68188;SDS011;66299;47.514;19.218;2023-01-09T13:17:29;46.03;;;28.35;;
68188;SDS011;66299;47.514;19.218;2023-01-09T13:20:10;47.80;;;28.52;;
68188;SDS011;66299;47.514;19.218;2023-01-09T13:22:49;49.90;;;29.02;;
68188;SDS011;66299;47.514;19.218;2023-01-09T13:25:25;53.33;;;32.13;;
68188;SDS011;66299;47.514;19.218;2023-01-09T13:28:01;53.15;;;32.78;;
68188;SDS011;66299;47.514;19.218;2023-01-09T13:30:43;52.33;;;32.15;;
68188;SDS011;66299;47.514;19.218;2023-01-09T13:33:25;51.67;;;31.55;;
68188;SDS011;66299;47.514;19.218;2023-01-09T13:36:02;52.70;;;31.05;;
68188;SDS011;66299;47.514;19.218;2023-01-09T13:38:33;52.22;;;30.88;;
68188;SDS011;66299;47.514;19.218;2023-01-09T13:41:05;50.78;;;29.88;;
68188;SDS011;66299;47.514;19.218;2023-01-09T13:43:57;54.50;;;33.35;;
68188;SDS011;66299;47.514;19.218;2023-01-09T13:46:32;49.50;;;31.27;;
68188;SDS011;66299;47.514;19.218;2023-01-09T13:49:03;49.35;;;30.63;;
68188;SDS011;66299;47.514;19.218;2023-01-09T13:57:33;47.45;;;27.88;;
68188;SDS011;66299;47.514;19.218;2023-01-09T14:03:16;47.50;;;29.02;;
68188;SDS011;66299;47.514;19.218;2023-01-09T14:06:01;46.80;;;28.25;;
68188;SDS011;66299;47.514;19.218;2023-01-09T14:08:33;47.83;;;29.50;;
68188;SDS011;66299;47.514;19.218;2023-01-09T14:11:02;46.80;;;29.38;;
68188;SDS011;66299;47.514;19.218;2023-01-09T14:13:32;45.30;;;28.67;;
68188;SDS011;66299;47.514;19.218;2023-01-09T14:16:14;47.13;;;27.58;;
68188;SDS011;66299;47.514;19.218;2023-01-09T14:18:47;50.22;;;28.38;;
68188;SDS011;66299;47.514;19.218;2023-01-09T14:21:19;45.50;;;28.10;;
68188;SDS011;66299;47.514;19.218;2023-01-09T14:23:50;51.78;;;29.48;;
68188;SDS011;66299;47.514;19.218;2023-01-09T14:26:40;51.08;;;30.05;;
68188;SDS011;66299;47.514;19.218;2023-01-09T14:38:27;46.80;;;28.55;;
68188;SDS011;66299;47.514;19.218;2023-01-09T14:41:00;50.53;;;29.60;;
68188;SDS011;66299;47.514;19.218;2023-01-09T14:43:40;45.47;;;26.85;;
68188;SDS011;66299;47.514;19.218;2023-01-09T14:46:15;49.65;;;27.58;;
68188;SDS011;66299;47.514;19.218;2023-01-09T14:49:00;50.42;;;28.90;;
68188;SDS011;66299;47.514;19.218;2023-01-09T14:51:34;47.53;;;28.27;;
68188;SDS011;66299;47.514;19.218;2023-01-09T14:56:45;47.60;;;29.23;;
68188;SDS011;66299;47.514;19.218;2023-01-09T14:59:14;50.80;;;29.67;;
68188;SDS011;66299;47.514;19.218;2023-01-09T15:01:45;46.58;;;28.00;;
68188;SDS011;66299;47.514;19.218;2023-01-09T15:04:27;49.72;;;28.85;;
68188;SDS011;66299;47.514;19.218;2023-01-09T15:07:00;52.70;;;30.77;;
68188;SDS011;66299;47.514;19.218;2023-01-09T15:09:31;53.53;;;30.98;;
68188;SDS011;66299;47.514;19.218;2023-01-09T15:12:06;51.45;;;31.33;;
68188;SDS011;66299;47.514;19.218;2023-01-09T15:14:37;62.85;;;36.20;;
68188;SDS011;66299;47.514;19.218;2023-01-09T15:17:14;64.78;;;38.10;;
68188;SDS011;66299;47.514;19.218;2023-01-09T15:19:46;61.40;;;35.35;;
68188;SDS011;66299;47.514;19.218;2023-01-09T15:22:22;55.15;;;33.65;;
68188;SDS011;66299;47.514;19.218;2023-01-09T15:24:55;52.78;;;31.98;;
68188;SDS011;66299;47.514;19.218;2023-01-09T15:27:25;49.25;;;30.40;;
68188;SDS011;66299;47.514;19.218;2023-01-09T15:29:54;50.90;;;30.65;;
68188;SDS011;66299;47.514;19.218;2023-01-09T15:32:25;53.28;;;32.80;;
68188;SDS011;66299;47.514;19.218;2023-01-09T15:34:59;53.03;;;32.15;;
68188;SDS011;66299;47.514;19.218;2023-01-09T15:37:31;54.20;;;31.60;;
68188;SDS011;66299;47.514;19.218;2023-01-09T15:40:05;56.08;;;33.28;;
68188;SDS011;66299;47.514;19.218;2023-01-09T15:42:50;56.53;;;34.80;;
68188;SDS011;66299;47.514;19.218;2023-01-09T15:45:25;59.80;;;35.13;;
68188;SDS011;66299;47.514;19.218;2023-01-09T15:48:20;57.55;;;34.35;;
68188;SDS011;66299;47.514;19.218;2023-01-09T15:50:52;53.67;;;32.53;;